sensor_id;sensor_type;location;lat;lon;timestamp;pressure;altitude;pressure_sealevel;temperature;humidity
10115;BME280;5097;43.260;27.812;2023-01-16T00:02:40;100337.88;;;7.45;82.17
10115;BME280;5097;43.260;27.812;2023-01-16T00:05:25;100329.91;;;7.48;82.03
10115;BME280;5097;43.260;27.812;2023-01-16T00:08:09;100256.50;;;6.94;82.09
10115;BME280;5097;43.260;27.812;2023-01-16T00:10:53;100295.84;;;7.21;82.57
10115;BME280;5097;43.260;27.812;2023-01-16T00:13:39;100330.09;;;7.42;83.00
10115;BME280;5097;43.260;27.812;2023-01-16T00:16:23;100296.91;;;7.15;82.81
10115;BME280;5097;43.260;27.812;2023-01-16T00:19:08;100318.84;;;7.38;83.17
10115;BME280;5097;43.260;27.812;2023-01-16T00:21:52;100324.22;;;7.35;83.34
10115;BME280;5097;43.260;27.812;2023-01-16T00:24:36;100328.72;;;7.31;84.04
10115;BME280;5097;43.260;27.812;2023-01-16T00:27:20;100312.59;;;7.42;83.79
10115;BME280;5097;43.260;27.812;2023-01-16T00:30:07;100310.69;;;7.46;84.14
10115;BME280;5097;43.260;27.812;2023-01-16T00:32:51;100305.19;;;7.52;84.18
10115;BME280;5097;43.260;27.812;2023-01-16T00:35:35;100298.44;;;7.45;84.41
10115;BME280;5097;43.260;27.812;2023-01-16T00:38:19;100300.50;;;7.36;84.92
10115;BME280;5097;43.260;27.812;2023-01-16T00:41:03;100298.06;;;7.32;85.75
10115;BME280;5097;43.260;27.812;2023-01-16T00:43:47;100296.75;;;7.44;86.17
10115;BME280;5097;43.260;27.812;2023-01-16T00:46:32;100296.84;;;7.41;86.58
10115;BME280;5097;43.260;27.812;2023-01-16T00:49:16;100291.31;;;7.48;87.20
10115;BME280;5097;43.260;27.812;2023-01-16T00:52:00;100291.25;;;7.50;86.46
10115;BME280;5097;43.260;27.812;2023-01-16T00:54:44;100293.31;;;7.42;87.16
10115;BME280;5097;43.260;27.812;2023-01-16T00:57:28;100294.81;;;7.49;86.88
10115;BME280;5097;43.260;27.812;2023-01-16T01:00:12;100288.53;;;7.53;87.55
10115;BME280;5097;43.260;27.812;2023-01-16T01:02:58;100245.66;;;7.27;86.78
10115;BME280;5097;43.260;27.812;2023-01-16T01:05:42;100279.59;;;7.57;86.88
10115;BME280;5097;43.260;27.812;2023-01-16T01:08:25;100276.00;;;7.60;86.42
10115;BME280;5097;43.260;27.812;2023-01-16T01:11:11;100265.97;;;7.69;87.07
10115;BME280;5097;43.260;27.812;2023-01-16T01:13:55;100269.16;;;7.78;86.14
10115;BME280;5097;43.260;27.812;2023-01-16T01:16:42;100257.75;;;7.55;86.78
10115;BME280;5097;43.260;27.812;2023-01-16T01:19:27;100252.84;;;7.46;87.62
10115;BME280;5097;43.260;27.812;2023-01-16T01:22:11;100256.44;;;7.43;88.34
10115;BME280;5097;43.260;27.812;2023-01-16T01:24:55;100240.88;;;7.61;87.79
10115;BME280;5097;43.260;27.812;2023-01-16T01:27:39;100244.81;;;7.72;86.88
10115;BME280;5097;43.260;27.812;2023-01-16T01:30:23;100243.34;;;7.65;87.57
10115;BME280;5097;43.260;27.812;2023-01-16T01:33:07;100237.69;;;7.52;88.59
10115;BME280;5097;43.260;27.812;2023-01-16T01:35:52;100238.50;;;7.54;88.05
10115;BME280;5097;43.260;27.812;2023-01-16T01:38:36;100244.25;;;7.42;88.12
10115;BME280;5097;43.260;27.812;2023-01-16T01:41:20;100252.97;;;7.43;89.12
10115;BME280;5097;43.260;27.812;2023-01-16T01:47:24;100245.22;;;7.40;88.76
10115;BME280;5097;43.260;27.812;2023-01-16T01:50:14;100241.72;;;7.39;88.80
10115;BME280;5097;43.260;27.812;2023-01-16T01:53:04;100249.66;;;7.37;88.62
10115;BME280;5097;43.260;27.812;2023-01-16T01:55:51;100247.22;;;7.33;90.04
10115;BME280;5097;43.260;27.812;2023-01-16T01:58:35;100252.97;;;7.19;89.86
10115;BME280;5097;43.260;27.812;2023-01-16T02:01:28;100254.06;;;7.37;89.25
10115;BME280;5097;43.260;27.812;2023-01-16T02:04:16;100244.41;;;7.37;88.79
10115;BME280;5097;43.260;27.812;2023-01-16T02:07:02;100250.56;;;7.36;88.50
10115;BME280;5097;43.260;27.812;2023-01-16T02:09:48;100239.97;;;7.62;88.05
10115;BME280;5097;43.260;27.812;2023-01-16T02:12:33;100241.22;;;7.51;87.22
10115;BME280;5097;43.260;27.812;2023-01-16T02:15:21;100237.63;;;7.54;88.10
10115;BME280;5097;43.260;27.812;2023-01-16T02:18:09;100230.72;;;7.51;87.94
10115;BME280;5097;43.260;27.812;2023-01-16T02:21:19;100229.72;;;7.55;87.06
10115;BME280;5097;43.260;27.812;2023-01-16T02:24:25;100228.06;;;7.53;87.98
10115;BME280;5097;43.260;27.812;2023-01-16T02:27:31;100245.16;;;7.63;88.00
10115;BME280;5097;43.260;27.812;2023-01-16T02:30:54;100231.13;;;7.64;87.35
10115;BME280;5097;43.260;27.812;2023-01-16T02:33:51;100231.34;;;7.58;88.65
10115;BME280;5097;43.260;27.812;2023-01-16T02:36:43;100231.69;;;7.27;90.05
10115;BME280;5097;43.260;27.812;2023-01-16T02:39:38;100236.31;;;7.20;90.55
10115;BME280;5097;43.260;27.812;2023-01-16T02:42:26;100232.84;;;7.42;91.34
10115;BME280;5097;43.260;27.812;2023-01-16T02:45:18;100238.94;;;7.44;90.38
10115;BME280;5097;43.260;27.812;2023-01-16T02:48:08;100236.97;;;7.49;89.68
10115;BME280;5097;43.260;27.812;2023-01-16T02:50:58;100234.91;;;7.57;90.14
10115;BME280;5097;43.260;27.812;2023-01-16T02:53:51;100224.50;;;7.54;89.84
10115;BME280;5097;43.260;27.812;2023-01-16T02:56:41;100222.22;;;7.45;90.59
10115;BME280;5097;43.260;27.812;2023-01-16T02:59:29;100219.19;;;7.55;89.70
10115;BME280;5097;43.260;27.812;2023-01-16T03:02:13;100215.56;;;7.36;90.66
10115;BME280;5097;43.260;27.812;2023-01-16T03:04:58;100215.34;;;7.42;91.18
10115;BME280;5097;43.260;27.812;2023-01-16T03:08:02;100213.31;;;7.49;90.38
10115;BME280;5097;43.260;27.812;2023-01-16T03:11:15;100211.28;;;7.33;90.63
10115;BME280;5097;43.260;27.812;2023-01-16T03:14:15;100187.03;;;7.49;90.26
10115;BME280;5097;43.260;27.812;2023-01-16T03:17:08;100184.00;;;7.58;90.33
10115;BME280;5097;43.260;27.812;2023-01-16T03:20:09;100161.72;;;7.46;89.27
10115;BME280;5097;43.260;27.812;2023-01-16T03:23:02;100197.13;;;7.60;89.45
10115;BME280;5097;43.260;27.812;2023-01-16T03:25:53;100204.41;;;7.53;89.26
10115;BME280;5097;43.260;27.812;2023-01-16T03:28:48;100196.97;;;7.41;90.55
10115;BME280;5097;43.260;27.812;2023-01-16T03:31:38;100207.03;;;7.53;89.79
10115;BME280;5097;43.260;27.812;2023-01-16T03:34:30;100184.63;;;7.43;89.62
10115;BME280;5097;43.260;27.812;2023-01-16T03:37:24;100191.25;;;7.53;89.96
10115;BME280;5097;43.260;27.812;2023-01-16T03:40:12;100192.16;;;7.52;88.98
10115;BME280;5097;43.260;27.812;2023-01-16T03:43:01;100199.06;;;7.54;89.66
10115;BME280;5097;43.260;27.812;2023-01-16T03:45:50;100199.91;;;7.55;90.01
10115;BME280;5097;43.260;27.812;2023-01-16T03:48:40;100184.78;;;7.40;89.32
10115;BME280;5097;43.260;27.812;2023-01-16T03:51:28;100198.19;;;7.54;89.27
10115;BME280;5097;43.260;27.812;2023-01-16T03:54:23;100198.34;;;7.51;89.17
10115;BME280;5097;43.260;27.812;2023-01-16T03:57:10;100197.84;;;7.41;90.25
10115;BME280;5097;43.260;27.812;2023-01-16T03:59:59;100198.56;;;7.45;89.40
10115;BME280;5097;43.260;27.812;2023-01-16T04:02:59;100194.78;;;7.52;89.41
10115;BME280;5097;43.260;27.812;2023-01-16T04:05:49;100187.94;;;7.48;89.70
10115;BME280;5097;43.260;27.812;2023-01-16T04:08:39;100186.44;;;7.42;89.41
10115;BME280;5097;43.260;27.812;2023-01-16T04:11:27;100186.09;;;7.50;89.30
10115;BME280;5097;43.260;27.812;2023-01-16T04:14:12;100187.28;;;7.43;89.76
10115;BME280;5097;43.260;27.812;2023-01-16T04:16:58;100188.72;;;7.50;89.53
10115;BME280;5097;43.260;27.812;2023-01-16T04:19:43;100182.69;;;7.48;89.46
10115;BME280;5097;43.260;27.812;2023-01-16T04:22:29;100151.06;;;7.27;89.72
10115;BME280;5097;43.260;27.812;2023-01-16T04:25:14;100183.25;;;7.56;89.55
10115;BME280;5097;43.260;27.812;2023-01-16T04:27:59;100146.97;;;7.20;90.26
10115;BME280;5097;43.260;27.812;2023-01-16T04:30:43;100141.72;;;7.20;90.03
10115;BME280;5097;43.260;27.812;2023-01-16T04:33:28;100147.09;;;7.17;89.73
10115;BME280;5097;43.260;27.812;2023-01-16T04:36:12;100102.59;;;6.90;90.25
10115;BME280;5097;43.260;27.812;2023-01-16T04:38:56;100142.63;;;7.19;89.96
10115;BME280;5097;43.260;27.812;2023-01-16T04:41:40;100186.72;;;7.34;90.13
10115;BME280;5097;43.260;27.812;2023-01-16T04:44:25;100126.78;;;6.98;91.10
10115;BME280;5097;43.260;27.812;2023-01-16T04:47:10;100133.00;;;6.96;90.61
10115;BME280;5097;43.260;27.812;2023-01-16T04:49:54;100129.34;;;7.00;90.53
10115;BME280;5097;43.260;27.812;2023-01-16T04:52:38;100111.16;;;6.95;90.37
10115;BME280;5097;43.260;27.812;2023-01-16T04:55:22;100134.31;;;7.08;90.70
10115;BME280;5097;43.260;27.812;2023-01-16T04:58:06;100122.16;;;7.05;90.80
10115;BME280;5097;43.260;27.812;2023-01-16T05:00:53;100121.06;;;7.11;89.84
10115;BME280;5097;43.260;27.812;2023-01-16T05:03:37;100114.97;;;7.10;89.78
10115;BME280;5097;43.260;27.812;2023-01-16T05:06:22;100159.09;;;7.46;89.22
10115;BME280;5097;43.260;27.812;2023-01-16T05:09:06;100118.13;;;7.18;88.95
10115;BME280;5097;43.260;27.812;2023-01-16T05:11:50;100114.97;;;7.10;88.69
10115;BME280;5097;43.260;27.812;2023-01-16T05:14:34;100144.41;;;7.41;89.25
10115;BME280;5097;43.260;27.812;2023-01-16T05:17:20;100150.03;;;7.31;88.57
10115;BME280;5097;43.260;27.812;2023-01-16T05:20:08;100117.31;;;7.16;88.36
10115;BME280;5097;43.260;27.812;2023-01-16T05:22:52;100108.66;;;7.36;87.79
10115;BME280;5097;43.260;27.812;2023-01-16T05:25:36;100143.44;;;7.65;86.91
10115;BME280;5097;43.260;27.812;2023-01-16T05:28:20;100147.09;;;7.61;86.82
10115;BME280;5097;43.260;27.812;2023-01-16T05:31:04;100134.75;;;7.63;86.07
10115;BME280;5097;43.260;27.812;2023-01-16T05:33:50;100098.94;;;7.38;86.51
10115;BME280;5097;43.260;27.812;2023-01-16T05:36:34;100099.81;;;7.17;86.47
10115;BME280;5097;43.260;27.812;2023-01-16T05:39:18;100134.16;;;7.34;88.06
10115;BME280;5097;43.260;27.812;2023-01-16T05:42:02;100135.13;;;7.32;87.21
10115;BME280;5097;43.260;27.812;2023-01-16T05:44:46;100084.34;;;7.09;88.17
10115;BME280;5097;43.260;27.812;2023-01-16T05:47:31;100082.63;;;7.30;86.98
10115;BME280;5097;43.260;27.812;2023-01-16T05:50:16;100089.53;;;7.33;87.02
10115;BME280;5097;43.260;27.812;2023-01-16T05:53:03;100085.69;;;7.42;86.30
10115;BME280;5097;43.260;27.812;2023-01-16T05:55:47;100089.97;;;7.65;85.15
10115;BME280;5097;43.260;27.812;2023-01-16T05:58:31;100120.16;;;7.77;84.45
10115;BME280;5097;43.260;27.812;2023-01-16T06:01:15;100078.84;;;7.58;84.67
10115;BME280;5097;43.260;27.812;2023-01-16T06:03:59;100120.31;;;7.94;84.80
10115;BME280;5097;43.260;27.812;2023-01-16T06:06:45;100068.69;;;7.71;83.86
10115;BME280;5097;43.260;27.812;2023-01-16T06:09:29;100074.41;;;7.81;83.61
10115;BME280;5097;43.260;27.812;2023-01-16T06:12:15;100096.78;;;7.91;83.72
10115;BME280;5097;43.260;27.812;2023-01-16T06:15:00;100103.63;;;7.95;83.27
10115;BME280;5097;43.260;27.812;2023-01-16T06:17:46;100125.47;;;7.97;83.50
10115;BME280;5097;43.260;27.812;2023-01-16T06:20:30;100100.25;;;7.71;83.45
10115;BME280;5097;43.260;27.812;2023-01-16T06:23:16;100136.31;;;8.10;82.76
10115;BME280;5097;43.260;27.812;2023-01-16T06:26:00;100093.25;;;7.92;83.04
10115;BME280;5097;43.260;27.812;2023-01-16T06:28:45;100087.97;;;7.92;82.39
10115;BME280;5097;43.260;27.812;2023-01-16T06:31:29;100128.97;;;8.18;81.63
10115;BME280;5097;43.260;27.812;2023-01-16T06:34:13;100135.66;;;8.26;81.69
10115;BME280;5097;43.260;27.812;2023-01-16T06:36:57;100085.72;;;7.83;81.34
10115;BME280;5097;43.260;27.812;2023-01-16T06:39:43;100046.69;;;7.74;81.01
10115;BME280;5097;43.260;27.812;2023-01-16T06:42:27;100054.03;;;7.65;80.52
10115;BME280;5097;43.260;27.812;2023-01-16T06:45:11;100092.56;;;8.08;80.34
10115;BME280;5097;43.260;27.812;2023-01-16T06:47:55;100108.09;;;8.14;80.12
10115;BME280;5097;43.260;27.812;2023-01-16T06:50:39;100095.25;;;8.06;80.78
10115;BME280;5097;43.260;27.812;2023-01-16T06:53:23;100134.22;;;8.18;81.18
10115;BME280;5097;43.260;27.812;2023-01-16T06:56:09;100087.44;;;8.04;81.29
10115;BME280;5097;43.260;27.812;2023-01-16T06:58:53;100134.06;;;8.42;80.25
10115;BME280;5097;43.260;27.812;2023-01-16T07:01:36;100129.56;;;8.25;80.63
10115;BME280;5097;43.260;27.812;2023-01-16T07:04:21;100091.00;;;8.24;79.43
10115;BME280;5097;43.260;27.812;2023-01-16T07:07:05;100122.03;;;8.36;80.79
10115;BME280;5097;43.260;27.812;2023-01-16T07:09:49;100113.97;;;8.39;79.97
10115;BME280;5097;43.260;27.812;2023-01-16T07:12:35;100068.88;;;8.28;79.82
10115;BME280;5097;43.260;27.812;2023-01-16T07:15:19;100078.84;;;8.41;78.77
10115;BME280;5097;43.260;27.812;2023-01-16T07:18:20;100097.97;;;8.46;78.97
10115;BME280;5097;43.260;27.812;2023-01-16T07:21:26;100104.38;;;8.59;78.18
10115;BME280;5097;43.260;27.812;2023-01-16T07:24:30;100069.44;;;8.35;78.66
10115;BME280;5097;43.260;27.812;2023-01-16T07:27:16;100044.63;;;8.41;78.49
10115;BME280;5097;43.260;27.812;2023-01-16T07:30:02;100086.94;;;8.95;77.65
10115;BME280;5097;43.260;27.812;2023-01-16T07:32:47;100042.25;;;8.34;78.52
10115;BME280;5097;43.260;27.812;2023-01-16T07:35:31;100070.06;;;8.80;78.07
10115;BME280;5097;43.260;27.812;2023-01-16T07:38:15;100065.53;;;8.64;78.10
10115;BME280;5097;43.260;27.812;2023-01-16T07:40:59;100053.69;;;8.73;78.05
10115;BME280;5097;43.260;27.812;2023-01-16T07:43:44;100058.41;;;8.66;78.35
10115;BME280;5097;43.260;27.812;2023-01-16T07:46:29;100013.88;;;8.41;77.30
10115;BME280;5097;43.260;27.812;2023-01-16T07:49:13;100017.84;;;8.51;77.75
10115;BME280;5097;43.260;27.812;2023-01-16T07:51:57;100036.25;;;8.70;77.67
10115;BME280;5097;43.260;27.812;2023-01-16T07:54:41;100048.22;;;8.78;77.60
10115;BME280;5097;43.260;27.812;2023-01-16T07:57:26;100048.59;;;8.70;77.46
10115;BME280;5097;43.260;27.812;2023-01-16T08:00:11;99994.94;;;8.14;77.52
10115;BME280;5097;43.260;27.812;2023-01-16T08:02:57;100036.69;;;8.61;77.92
10115;BME280;5097;43.260;27.812;2023-01-16T08:05:42;100050.22;;;8.53;76.89
10115;BME280;5097;43.260;27.812;2023-01-16T08:08:26;100043.28;;;8.89;76.24
10115;BME280;5097;43.260;27.812;2023-01-16T08:11:11;100040.91;;;8.84;75.98
10115;BME280;5097;43.260;27.812;2023-01-16T08:14:14;100033.25;;;8.97;75.84
10115;BME280;5097;43.260;27.812;2023-01-16T08:16:58;99987.78;;;8.75;75.45
10115;BME280;5097;43.260;27.812;2023-01-16T08:19:44;100018.88;;;9.04;74.75
10115;BME280;5097;43.260;27.812;2023-01-16T08:22:28;100024.31;;;9.19;74.72
10115;BME280;5097;43.260;27.812;2023-01-16T08:25:13;100024.16;;;9.22;74.20
10115;BME280;5097;43.260;27.812;2023-01-16T08:27:58;99976.59;;;8.88;73.62
10115;BME280;5097;43.260;27.812;2023-01-16T08:30:41;100024.81;;;9.45;74.04
10115;BME280;5097;43.260;27.812;2023-01-16T08:33:25;100025.31;;;9.16;74.72
10115;BME280;5097;43.260;27.812;2023-01-16T08:36:11;100019.06;;;9.54;73.41
10115;BME280;5097;43.260;27.812;2023-01-16T08:38:57;100011.28;;;9.51;73.32
10115;BME280;5097;43.260;27.812;2023-01-16T08:41:42;100032.81;;;9.24;74.61
10115;BME280;5097;43.260;27.812;2023-01-16T08:44:43;100045.47;;;9.35;74.08
10115;BME280;5097;43.260;27.812;2023-01-16T08:47:45;100032.09;;;9.75;71.84
10115;BME280;5097;43.260;27.812;2023-01-16T08:50:47;100031.53;;;9.50;72.73
10115;BME280;5097;43.260;27.812;2023-01-16T08:53:50;100018.72;;;9.78;71.62
10115;BME280;5097;43.260;27.812;2023-01-16T08:56:34;100029.91;;;9.48;71.42
10115;BME280;5097;43.260;27.812;2023-01-16T08:59:19;100028.06;;;9.50;70.59
10115;BME280;5097;43.260;27.812;2023-01-16T09:02:04;100024.88;;;9.78;69.96
10115;BME280;5097;43.260;27.812;2023-01-16T09:04:49;100023.91;;;9.97;69.01
10115;BME280;5097;43.260;27.812;2023-01-16T09:07:33;100023.75;;;10.33;68.09
10115;BME280;5097;43.260;27.812;2023-01-16T09:10:18;100009.28;;;10.07;68.88
10115;BME280;5097;43.260;27.812;2023-01-16T09:13:02;100004.13;;;10.21;68.04
10115;BME280;5097;43.260;27.812;2023-01-16T09:16:04;100013.69;;;10.24;67.21
10115;BME280;5097;43.260;27.812;2023-01-16T09:18:48;100001.63;;;10.36;67.09
10115;BME280;5097;43.260;27.812;2023-01-16T09:21:32;100000.53;;;10.06;68.28
10115;BME280;5097;43.260;27.812;2023-01-16T09:24:16;99986.53;;;10.04;68.15
10115;BME280;5097;43.260;27.812;2023-01-16T09:27:02;99975.94;;;9.88;70.38
10115;BME280;5097;43.260;27.812;2023-01-16T09:29:46;99983.50;;;10.12;67.16
10115;BME280;5097;43.260;27.812;2023-01-16T09:32:30;99973.13;;;9.76;69.02
10115;BME280;5097;43.260;27.812;2023-01-16T09:35:16;99963.00;;;9.84;69.59
10115;BME280;5097;43.260;27.812;2023-01-16T09:38:00;99959.81;;;9.44;69.69
10115;BME280;5097;43.260;27.812;2023-01-16T09:40:44;99957.78;;;9.66;69.25
10115;BME280;5097;43.260;27.812;2023-01-16T09:43:35;99945.03;;;10.24;68.25
10115;BME280;5097;43.260;27.812;2023-01-16T09:46:25;99946.09;;;10.37;68.19
10115;BME280;5097;43.260;27.812;2023-01-16T09:49:17;99939.09;;;9.87;68.41
10115;BME280;5097;43.260;27.812;2023-01-16T09:52:07;99939.88;;;9.89;67.33
10115;BME280;5097;43.260;27.812;2023-01-16T09:55:17;99873.06;;;9.55;68.23
10115;BME280;5097;43.260;27.812;2023-01-16T09:58:21;99933.97;;;10.17;68.27
10115;BME280;5097;43.260;27.812;2023-01-16T10:01:31;99931.06;;;10.06;67.45
10115;BME280;5097;43.260;27.812;2023-01-16T10:04:19;99918.81;;;10.05;66.62
10115;BME280;5097;43.260;27.812;2023-01-16T10:07:23;99919.75;;;9.70;65.63
10115;BME280;5097;43.260;27.812;2023-01-16T10:10:25;99916.53;;;9.81;66.23
10115;BME280;5097;43.260;27.812;2023-01-16T10:13:44;99905.38;;;9.43;67.30
10115;BME280;5097;43.260;27.812;2023-01-16T10:16:45;99907.66;;;9.66;65.89
10115;BME280;5097;43.260;27.812;2023-01-16T10:19:44;99880.00;;;9.73;66.72
10115;BME280;5097;43.260;27.812;2023-01-16T10:22:39;99854.22;;;9.63;67.20
10115;BME280;5097;43.260;27.812;2023-01-16T10:25:31;99892.88;;;9.80;67.60
10115;BME280;5097;43.260;27.812;2023-01-16T10:28:28;99890.69;;;9.88;66.18
10115;BME280;5097;43.260;27.812;2023-01-16T10:31:18;99886.09;;;9.92;66.46
10115;BME280;5097;43.260;27.812;2023-01-16T10:34:10;99845.38;;;9.64;65.84
10115;BME280;5097;43.260;27.812;2023-01-16T10:36:58;99858.06;;;9.73;65.24
10115;BME280;5097;43.260;27.812;2023-01-16T10:39:42;99860.19;;;9.66;65.95
10115;BME280;5097;43.260;27.812;2023-01-16T10:42:31;99859.84;;;9.88;65.52
10115;BME280;5097;43.260;27.812;2023-01-16T10:45:35;99862.09;;;9.96;64.93
10115;BME280;5097;43.260;27.812;2023-01-16T10:48:37;99850.41;;;10.00;65.93
10115;BME280;5097;43.260;27.812;2023-01-16T10:51:36;99849.81;;;10.11;64.91
10115;BME280;5097;43.260;27.812;2023-01-16T10:54:20;99821.06;;;10.38;62.94
10115;BME280;5097;43.260;27.812;2023-01-16T10:57:10;99828.78;;;10.10;63.95
10115;BME280;5097;43.260;27.812;2023-01-16T11:00:01;99829.56;;;10.28;62.91
10115;BME280;5097;43.260;27.812;2023-01-16T11:02:47;99818.53;;;10.51;63.01
10115;BME280;5097;43.260;27.812;2023-01-16T11:05:33;99824.16;;;10.61;62.31
10115;BME280;5097;43.260;27.812;2023-01-16T11:08:19;99819.31;;;10.84;61.67
10115;BME280;5097;43.260;27.812;2023-01-16T11:11:05;99817.66;;;11.12;62.05
10115;BME280;5097;43.260;27.812;2023-01-16T11:14:12;99793.06;;;10.66;61.27
10115;BME280;5097;43.260;27.812;2023-01-16T11:17:24;99783.19;;;10.54;62.61
10115;BME280;5097;43.260;27.812;2023-01-16T11:20:29;99798.34;;;10.66;61.84
10115;BME280;5097;43.260;27.812;2023-01-16T11:23:19;99797.94;;;11.03;61.63
10115;BME280;5097;43.260;27.812;2023-01-16T11:26:04;99798.88;;;11.02;61.14
10115;BME280;5097;43.260;27.812;2023-01-16T11:28:49;99796.09;;;10.75;61.60
10115;BME280;5097;43.260;27.812;2023-01-16T11:31:33;99781.31;;;10.56;61.68
10115;BME280;5097;43.260;27.812;2023-01-16T11:34:17;99785.13;;;10.20;62.88
10115;BME280;5097;43.260;27.812;2023-01-16T11:37:05;99774.94;;;10.75;62.02
10115;BME280;5097;43.260;27.812;2023-01-16T11:39:53;99756.28;;;10.92;60.87
10115;BME280;5097;43.260;27.812;2023-01-16T11:42:51;99771.41;;;11.04;60.58
10115;BME280;5097;43.260;27.812;2023-01-16T11:45:56;99778.53;;;10.73;62.79
10115;BME280;5097;43.260;27.812;2023-01-16T11:48:52;99746.63;;;10.62;62.80
10115;BME280;5097;43.260;27.812;2023-01-16T11:51:37;99765.81;;;10.80;62.87
10115;BME280;5097;43.260;27.812;2023-01-16T11:54:26;99764.53;;;10.57;62.58
10115;BME280;5097;43.260;27.812;2023-01-16T12:00:42;99749.38;;;10.45;62.92
10115;BME280;5097;43.260;27.812;2023-01-16T12:03:49;99741.75;;;10.70;62.94
10115;BME280;5097;43.260;27.812;2023-01-16T12:06:49;99728.44;;;10.72;61.77
10115;BME280;5097;43.260;27.812;2023-01-16T12:09:43;99721.63;;;10.68;61.73
10115;BME280;5097;43.260;27.812;2023-01-16T12:12:35;99720.59;;;10.85;61.67
10115;BME280;5097;43.260;27.812;2023-01-16T12:15:43;99711.63;;;10.87;59.56
10115;BME280;5097;43.260;27.812;2023-01-16T12:18:41;99715.63;;;10.95;59.94
10115;BME280;5097;43.260;27.812;2023-01-16T12:21:34;99710.44;;;10.93;60.51
10115;BME280;5097;43.260;27.812;2023-01-16T12:24:29;99716.06;;;10.87;60.51
10115;BME280;5097;43.260;27.812;2023-01-16T12:27:28;99720.66;;;10.54;62.12
10115;BME280;5097;43.260;27.812;2023-01-16T12:30:23;99725.47;;;10.48;61.62
10115;BME280;5097;43.260;27.812;2023-01-16T12:33:15;99714.22;;;10.44;61.37
10115;BME280;5097;43.260;27.812;2023-01-16T12:36:07;99727.03;;;10.36;62.14
10115;BME280;5097;43.260;27.812;2023-01-16T12:39:11;99732.53;;;10.31;61.98
10115;BME280;5097;43.260;27.812;2023-01-16T12:42:02;99727.88;;;10.36;63.38
10115;BME280;5097;43.260;27.812;2023-01-16T12:45:21;99729.16;;;10.60;64.43
10115;BME280;5097;43.260;27.812;2023-01-16T12:48:22;99713.06;;;10.79;65.03
10115;BME280;5097;43.260;27.812;2023-01-16T12:51:21;99717.72;;;10.29;66.48
10115;BME280;5097;43.260;27.812;2023-01-16T12:54:20;99709.13;;;10.41;67.18
10115;BME280;5097;43.260;27.812;2023-01-16T13:00:19;99705.63;;;10.40;65.02
10115;BME280;5097;43.260;27.812;2023-01-16T13:03:15;99701.97;;;10.27;67.25
10115;BME280;5097;43.260;27.812;2023-01-16T13:06:02;99684.34;;;10.44;67.45
10115;BME280;5097;43.260;27.812;2023-01-16T13:08:49;99701.59;;;10.49;68.29
10115;BME280;5097;43.260;27.812;2023-01-16T13:11:56;99700.38;;;10.55;66.77
10115;BME280;5097;43.260;27.812;2023-01-16T13:15:01;99695.16;;;10.39;65.16
10115;BME280;5097;43.260;27.812;2023-01-16T13:17:49;99680.81;;;10.43;64.05
10115;BME280;5097;43.260;27.812;2023-01-16T13:20:37;99663.34;;;10.26;67.17
10115;BME280;5097;43.260;27.812;2023-01-16T13:23:24;99685.06;;;10.46;70.17
10115;BME280;5097;43.260;27.812;2023-01-16T13:26:12;99685.28;;;10.71;70.04
10115;BME280;5097;43.260;27.812;2023-01-16T13:29:04;99674.06;;;10.23;69.94
10115;BME280;5097;43.260;27.812;2023-01-16T13:31:52;99674.94;;;10.23;72.88
10115;BME280;5097;43.260;27.812;2023-01-16T13:34:47;99666.53;;;10.31;74.70
10115;BME280;5097;43.260;27.812;2023-01-16T13:37:53;99643.13;;;10.11;75.31
10115;BME280;5097;43.260;27.812;2023-01-16T13:41:07;99644.00;;;9.95;77.46
10115;BME280;5097;43.260;27.812;2023-01-16T13:43:56;99673.03;;;9.95;78.49
10115;BME280;5097;43.260;27.812;2023-01-16T13:47:03;99677.16;;;9.85;78.93
10115;BME280;5097;43.260;27.812;2023-01-16T13:49:48;99672.47;;;9.90;79.18
10115;BME280;5097;43.260;27.812;2023-01-16T13:52:33;99670.56;;;9.92;79.03
10115;BME280;5097;43.260;27.812;2023-01-16T13:55:27;99676.78;;;9.91;79.43
10115;BME280;5097;43.260;27.812;2023-01-16T13:58:15;99668.19;;;10.03;78.84
10115;BME280;5097;43.260;27.812;2023-01-16T14:01:02;99665.66;;;9.86;79.50
10115;BME280;5097;43.260;27.812;2023-01-16T14:04:15;99653.41;;;9.85;79.04
10115;BME280;5097;43.260;27.812;2023-01-16T14:07:47;99670.78;;;9.73;79.22
10115;BME280;5097;43.260;27.812;2023-01-16T14:14:47;99664.00;;;9.69;79.72
10115;BME280;5097;43.260;27.812;2023-01-16T14:18:17;99657.16;;;9.81;80.02
10115;BME280;5097;43.260;27.812;2023-01-16T14:21:03;99651.66;;;9.53;81.00
10115;BME280;5097;43.260;27.812;2023-01-16T14:23:50;99605.81;;;9.56;79.63
10115;BME280;5097;43.260;27.812;2023-01-16T14:26:49;99605.09;;;9.38;80.66
10115;BME280;5097;43.260;27.812;2023-01-16T14:29:35;99643.31;;;9.61;80.28
10115;BME280;5097;43.260;27.812;2023-01-16T14:32:30;99559.09;;;8.96;80.83
10115;BME280;5097;43.260;27.812;2023-01-16T14:35:17;99634.91;;;9.22;82.15
10115;BME280;5097;43.260;27.812;2023-01-16T14:38:04;99551.19;;;8.80;82.53
10115;BME280;5097;43.260;27.812;2023-01-16T14:40:54;99586.66;;;9.06;82.69
10115;BME280;5097;43.260;27.812;2023-01-16T14:44:12;99619.63;;;9.29;82.08
10115;BME280;5097;43.260;27.812;2023-01-16T14:47:24;99575.59;;;8.99;82.15
10115;BME280;5097;43.260;27.812;2023-01-16T14:50:43;99605.00;;;9.39;81.57
10115;BME280;5097;43.260;27.812;2023-01-16T14:53:46;99611.63;;;9.15;82.48
10115;BME280;5097;43.260;27.812;2023-01-16T14:57:08;99568.03;;;8.93;83.48
10115;BME280;5097;43.260;27.812;2023-01-16T14:59:56;99545.88;;;8.65;83.32
10115;BME280;5097;43.260;27.812;2023-01-16T15:02:49;99606.19;;;9.18;83.24
10115;BME280;5097;43.260;27.812;2023-01-16T15:05:36;99612.06;;;9.07;83.78
10115;BME280;5097;43.260;27.812;2023-01-16T15:08:39;99606.63;;;9.26;82.54
10115;BME280;5097;43.260;27.812;2023-01-16T15:11:26;99603.81;;;9.29;82.73
10115;BME280;5097;43.260;27.812;2023-01-16T15:14:18;99592.44;;;9.13;82.81
10115;BME280;5097;43.260;27.812;2023-01-16T15:17:18;99567.69;;;8.99;82.76
10115;BME280;5097;43.260;27.812;2023-01-16T15:20:24;99604.50;;;9.17;83.74